createdAt,value
2019-04-11T00:02:00.401Z,6.50
2019-04-11T00:05:06.413Z,6.40
2019-04-11T00:08:12.131Z,6.40
2019-04-11T00:11:17.733Z,6.40
2019-04-11T00:14:24.091Z,6.30
2019-04-11T00:17:30.048Z,6.30
2019-04-11T00:20:36.103Z,6.30
2019-04-11T00:23:41.208Z,6.30
2019-04-11T00:26:46.590Z,6.20
2019-04-11T00:29:51.680Z,6.30
2019-04-11T00:32:56.690Z,6.30
2019-04-11T00:36:02.024Z,6.20
2019-04-11T00:39:07.894Z,6.20
2019-04-11T00:42:12.884Z,6.20
2019-04-11T00:45:17.812Z,6.20
2019-04-11T00:48:23.787Z,6.10
2019-04-11T00:51:29.005Z,6.10
2019-04-11T00:54:35.182Z,6.10
2019-04-11T00:57:41.130Z,6.10
2019-04-11T01:00:47.156Z,6.10
2019-04-11T01:03:52.344Z,6.10
2019-04-11T01:06:58.373Z,6.10
2019-04-11T01:10:04.438Z,6.10
2019-04-11T01:13:09.536Z,6.00
2019-04-11T01:16:28.356Z,6.00
2019-04-11T01:19:33.476Z,6.00
2019-04-11T01:22:38.476Z,5.90
2019-04-11T01:25:44.363Z,5.90
2019-04-11T01:28:49.581Z,5.90
2019-04-11T01:32:00.184Z,5.80
2019-04-11T01:35:06.821Z,5.80
2019-04-11T01:38:13.699Z,5.80
2019-04-11T01:41:20.466Z,5.80
2019-04-11T01:44:25.693Z,5.80
2019-04-11T01:47:53.130Z,5.80
2019-04-11T01:50:59.083Z,5.80
2019-04-11T01:54:05.721Z,5.80
2019-04-11T01:57:11.756Z,5.80
2019-04-11T02:00:50.811Z,5.80
2019-04-11T02:04:05.723Z,5.70
2019-04-11T02:07:11.986Z,5.70
2019-04-11T02:10:17.180Z,5.60
2019-04-11T02:13:22.160Z,5.50
2019-04-11T02:16:27.289Z,5.50
2019-04-11T02:19:32.389Z,5.50
2019-04-11T02:22:42.413Z,5.60
2019-04-11T02:26:05.039Z,5.50
2019-04-11T02:29:11.124Z,5.50
2019-04-11T02:32:18.239Z,5.50
2019-04-11T02:35:24.222Z,5.50
2019-04-11T02:38:30.546Z,5.40
2019-04-11T02:41:37.973Z,5.40
2019-04-11T02:44:59.871Z,5.30
2019-04-11T02:47:51.742Z,5.30
2019-04-11T02:50:56.630Z,5.30
2019-04-11T02:54:04.584Z,5.20
2019-04-11T02:57:10.012Z,5.20
2019-04-11T03:00:15.947Z,5.20
2019-04-11T03:03:23.196Z,5.30
2019-04-11T03:06:28.326Z,5.30
2019-04-11T03:09:34.823Z,5.20
2019-04-11T03:12:40.564Z,5.20
2019-04-11T03:15:59.498Z,5.20
2019-04-11T03:19:06.535Z,5.20
2019-04-11T03:22:00.975Z,5.20
2019-04-11T03:25:08.406Z,5.10
2019-04-11T03:28:18.340Z,5.10
2019-04-11T03:32:05.919Z,5.10
2019-04-11T03:40:57.863Z,5.00
2019-04-11T03:43:58.201Z,5.00
2019-04-11T03:47:11.250Z,5.00
2019-04-11T03:50:07.653Z,5.00
2019-04-11T03:53:10.515Z,5.00
2019-04-11T03:56:16.256Z,4.90
2019-04-11T03:59:23.694Z,4.90
2019-04-11T04:02:30.709Z,4.90
2019-04-11T04:05:38.559Z,4.90
2019-04-11T04:08:44.414Z,4.90
2019-04-11T04:11:51.258Z,4.80
2019-04-11T04:15:37.497Z,4.80
2019-04-11T04:18:45.801Z,4.80
2019-04-11T04:21:59.564Z,4.80
2019-04-11T04:25:05.857Z,4.80
2019-04-11T04:28:11.785Z,4.80
2019-04-11T04:31:18.445Z,4.70
2019-04-11T04:34:25.897Z,4.80
2019-04-11T04:37:34.071Z,4.70
2019-04-11T04:40:55.522Z,4.70
2019-04-11T04:43:50.734Z,4.70
2019-04-11T04:47:10.210Z,4.70
2019-04-11T04:50:04.551Z,4.60
2019-04-11T04:53:10.278Z,4.60
2019-04-11T04:56:20.098Z,4.70
2019-04-11T04:59:23.492Z,4.70
2019-04-11T05:02:30.334Z,4.70
2019-04-11T05:05:35.743Z,4.60
2019-04-11T05:08:41.021Z,4.60
2019-04-11T05:11:46.655Z,4.60
2019-04-11T05:14:52.185Z,4.60
2019-04-11T05:17:57.994Z,4.60
2019-04-11T05:21:03.284Z,4.60
2019-04-11T05:24:08.497Z,4.60
2019-04-11T05:27:14.451Z,4.60
2019-04-11T05:30:19.941Z,4.60
2019-04-11T05:33:25.320Z,4.60
2019-04-11T05:36:30.505Z,4.60
2019-04-11T05:39:35.928Z,4.60
2019-04-11T05:42:41.703Z,4.60
2019-04-11T05:45:48.469Z,4.60
2019-04-11T05:49:02.677Z,4.60
2019-04-11T05:52:10.276Z,4.70
2019-04-11T05:55:15.599Z,4.70
2019-04-11T05:58:20.745Z,4.70
2019-04-11T06:01:30.850Z,4.80
2019-04-11T06:04:42.757Z,4.80
2019-04-11T06:07:57.294Z,4.80
2019-04-11T06:11:24.220Z,4.80
2019-04-11T06:14:33.852Z,4.80
2019-04-11T06:17:40.639Z,4.80
2019-04-11T06:20:49.049Z,4.90
2019-04-11T06:24:03.346Z,4.90
2019-04-11T06:27:35.827Z,5.00
2019-04-11T06:30:59.672Z,5.10
2019-04-11T06:34:07.219Z,5.10
2019-04-11T06:37:30.047Z,5.20
2019-04-11T06:40:39.872Z,5.30
2019-04-11T06:44:06.923Z,5.40
2019-04-11T06:47:34.689Z,5.50
2019-04-11T06:50:53.834Z,5.60
2019-04-11T06:54:23.535Z,5.60
2019-04-11T06:57:30.007Z,5.70
2019-04-11T07:00:36.956Z,5.70
2019-04-11T07:03:47.406Z,5.70
2019-04-11T07:06:54.214Z,5.70
2019-04-11T07:10:02.092Z,5.70
2019-04-11T07:13:12.196Z,5.80
2019-04-11T07:16:18.460Z,5.90
2019-04-11T07:19:41.664Z,6.20
2019-04-11T07:23:04.367Z,6.30
2019-04-11T07:26:12.672Z,6.30
2019-04-11T07:29:50.732Z,6.30
2019-04-11T07:33:03.893Z,6.50
2019-04-11T07:36:27.692Z,6.70
2019-04-11T07:39:53.440Z,6.80
2019-04-11T07:43:13.319Z,6.80
2019-04-11T07:46:40.729Z,6.90
2019-04-11T07:49:46.261Z,6.90
2019-04-11T07:52:54.697Z,6.90
2019-04-11T07:56:02.048Z,7.00
2019-04-11T07:59:10.734Z,7.10
2019-04-11T08:02:33.804Z,7.20
2019-04-11T08:06:15.975Z,7.30
2019-04-11T08:09:31.228Z,7.40
2019-04-11T08:12:37.316Z,7.50
2019-04-11T08:16:00.116Z,7.50
2019-04-11T08:19:23.130Z,7.50
2019-04-11T08:22:35.879Z,7.60
2019-04-11T08:26:06.150Z,7.70
2019-04-11T08:29:14.077Z,7.80
2019-04-11T08:32:36.024Z,7.90
2019-04-11T08:36:09.416Z,7.90
2019-04-11T08:39:22.644Z,7.90
2019-04-11T08:42:52.843Z,7.90
2019-04-11T08:46:03.159Z,8.00
2019-04-11T08:49:15.285Z,8.10
2019-04-11T08:52:36.704Z,8.10
2019-04-11T08:55:55.314Z,8.30
2019-04-11T08:59:31.344Z,8.30
2019-04-11T09:02:46.175Z,8.30
2019-04-11T09:06:06.299Z,8.40
2019-04-11T09:09:38.114Z,8.50
2019-04-11T09:12:50.943Z,8.50
2019-04-11T09:16:13.765Z,8.60
2019-04-11T09:19:43.514Z,8.60
2019-04-11T09:23:17.577Z,8.60
2019-04-11T09:26:42.535Z,8.60
2019-04-11T09:29:52.498Z,8.80
2019-04-11T09:33:20.764Z,8.90
2019-04-11T09:36:45.188Z,9.00
2019-04-11T09:40:21.555Z,9.10
2019-04-11T09:43:29.425Z,9.10
2019-04-11T09:46:48.797Z,9.10
2019-04-11T09:49:56.179Z,9.20
2019-04-11T09:53:01.579Z,9.30
2019-04-11T09:56:36.226Z,9.30
2019-04-11T09:59:51.848Z,9.40
2019-04-11T10:03:00.832Z,9.50
2019-04-11T10:06:30.443Z,9.60
2019-04-11T10:09:55.392Z,9.70
2019-04-11T10:13:18.718Z,9.70
2019-04-11T10:16:46.520Z,9.80
2019-04-11T10:19:58.039Z,9.80
2019-04-11T10:23:22.814Z,9.90
2019-04-11T10:26:30.477Z,10.00
2019-04-11T10:29:44.099Z,10.10
2019-04-11T10:32:52.017Z,10.30
2019-04-11T10:36:07.404Z,10.30
2019-04-11T10:39:30.438Z,10.40
2019-04-11T10:42:35.357Z,10.50
2019-04-11T10:46:02.833Z,10.70
2019-04-11T10:49:28.339Z,10.80
2019-04-11T10:52:38.294Z,10.90
2019-04-11T10:56:08.882Z,11.00
2019-04-11T10:59:15.393Z,10.90
2019-04-11T11:02:31.517Z,10.90
2019-04-11T11:05:38.332Z,11.00
2019-04-11T11:08:51.129Z,11.20
2019-04-11T11:12:15.224Z,11.30
2019-04-11T11:15:25.901Z,11.50
2019-04-11T11:19:25.973Z,11.70
2019-04-11T11:22:27.696Z,11.70
2019-04-11T11:25:54.554Z,11.80
2019-04-11T11:29:19.197Z,11.80
2019-04-11T11:32:31.526Z,11.80
2019-04-11T11:35:57.840Z,11.90
2019-04-11T11:39:20.064Z,12.00
2019-04-11T11:42:42.711Z,12.20
2019-04-11T11:46:05.400Z,12.40
2019-04-11T11:49:29.587Z,12.40
2019-04-11T11:52:51.198Z,12.20
2019-04-11T11:55:57.838Z,12.00
2019-04-11T11:59:16.597Z,11.80
2019-04-11T12:02:26.432Z,11.60
2019-04-11T12:05:45.600Z,11.60
2019-04-11T12:09:06.446Z,11.70
2019-04-11T12:12:17.613Z,11.80
2019-04-11T12:15:43.507Z,12.00
2019-04-11T12:19:08.726Z,12.10
2019-04-11T12:22:14.263Z,12.30
2019-04-11T12:25:40.844Z,12.40
2019-04-11T12:29:20.306Z,12.40
2019-04-11T12:32:28.466Z,12.50
2019-04-11T12:35:40.389Z,12.60
2019-04-11T12:39:04.396Z,12.80
2019-04-11T12:42:14.420Z,12.80
2019-04-11T12:45:37.445Z,12.80
2019-04-11T12:48:46.109Z,13.00
2019-04-11T12:52:13.454Z,13.20
2019-04-11T12:55:24.257Z,13.20
2019-04-11T12:58:35.828Z,13.20
2019-04-11T13:02:02.608Z,12.90
2019-04-11T13:05:09.649Z,12.70
2019-04-11T13:08:36.630Z,12.60
2019-04-11T13:11:43.415Z,12.80
2019-04-11T13:15:03.297Z,12.80
2019-04-11T13:18:27.443Z,12.80
2019-04-11T13:21:45.724Z,12.70
2019-04-11T13:25:00.386Z,12.70
2019-04-11T13:28:05.461Z,12.70
2019-04-11T13:31:41.762Z,12.70
2019-04-11T13:34:47.542Z,12.80
2019-04-11T13:38:07.588Z,12.80
2019-04-11T13:41:30.513Z,12.90
2019-04-11T13:44:37.509Z,12.80
2019-04-11T13:48:00.436Z,12.70
2019-04-11T13:51:10.065Z,12.60
2019-04-11T13:54:40.422Z,12.60
2019-04-11T13:58:07.708Z,12.70
2019-04-11T14:01:16.786Z,12.70
2019-04-11T14:04:25.144Z,12.90
2019-04-11T14:07:30.165Z,13.10
2019-04-11T14:10:35.244Z,13.20
2019-04-11T14:13:42.002Z,13.40
2019-04-11T14:16:54.907Z,13.50
2019-04-11T14:20:28.642Z,13.70
2019-04-11T14:23:43.738Z,13.80
2019-04-11T14:26:50.516Z,13.90
2019-04-11T14:30:05.122Z,13.80
2019-04-11T14:33:10.194Z,13.80
2019-04-11T14:36:33.792Z,13.70
2019-04-11T14:39:41.560Z,13.60
2019-04-11T14:43:04.526Z,13.50
2019-04-11T14:46:28.688Z,13.30
2019-04-11T14:49:33.861Z,13.30
2019-04-11T14:52:57.977Z,13.20
2019-04-11T14:56:05.940Z,13.10
2019-04-11T14:59:23.884Z,13.00
2019-04-11T15:02:45.683Z,13.10
2019-04-11T15:05:55.961Z,13.20
2019-04-11T15:09:29.427Z,13.40
2019-04-11T15:12:35.431Z,13.40
2019-04-11T15:15:48.576Z,13.50
2019-04-11T15:18:59.420Z,13.50
2019-04-11T15:22:23.936Z,13.30
2019-04-11T15:25:40.651Z,13.10
2019-04-11T15:29:14.779Z,13.10
2019-04-11T15:32:48.085Z,13.20
2019-04-11T15:35:53.129Z,13.40
2019-04-11T15:39:31.618Z,13.50
2019-04-11T15:42:49.269Z,13.60
2019-04-11T15:46:05.576Z,13.70
2019-04-11T15:49:48.073Z,13.80
2019-04-11T15:52:56.193Z,13.80
2019-04-11T15:56:22.796Z,13.90
2019-04-11T15:59:55.827Z,13.80
2019-04-11T16:03:08.777Z,13.60
2019-04-11T16:06:34.749Z,13.30
2019-04-11T16:09:39.887Z,13.10
2019-04-11T16:12:53.245Z,13.00
2019-04-11T16:16:06.562Z,12.90
2019-04-11T16:19:27.358Z,12.90
2019-04-11T16:22:55.001Z,12.80
2019-04-11T16:25:58.121Z,12.70
2019-04-11T16:29:15.264Z,12.40
2019-04-11T16:32:20.293Z,12.30
2019-04-11T16:35:40.766Z,12.20
2019-04-11T16:39:04.886Z,12.10
2019-04-11T16:42:11.267Z,11.90
2019-04-11T16:45:33.594Z,11.80
2019-04-11T16:48:38.527Z,11.60
2019-04-11T16:51:43.473Z,11.50
2019-04-11T16:54:48.550Z,11.50
2019-04-11T16:57:53.661Z,11.40
2019-04-11T17:00:58.752Z,11.30
2019-04-11T17:04:03.762Z,11.30
2019-04-11T17:07:36.770Z,11.20
2019-04-11T17:10:59.841Z,11.10
2019-04-11T17:14:05.389Z,11.10
2019-04-11T17:17:15.129Z,10.90
2019-04-11T17:20:17.749Z,10.90
2019-04-11T17:23:23.473Z,10.90
2019-04-11T17:26:28.964Z,10.80
2019-04-11T17:29:34.613Z,10.80
2019-04-11T17:32:43.780Z,10.80
2019-04-11T17:35:49.184Z,10.60
2019-04-11T17:38:54.428Z,10.50
2019-04-11T17:41:59.430Z,10.40
2019-04-11T17:45:04.684Z,10.40
2019-04-11T17:48:09.711Z,10.30
2019-04-11T17:51:14.901Z,10.30
2019-04-11T17:54:19.909Z,10.20
2019-04-11T17:57:27.148Z,10.10
2019-04-11T18:00:35.078Z,10.00
2019-04-11T18:03:42.046Z,9.90
2019-04-11T18:06:48.429Z,9.70
2019-04-11T18:09:55.774Z,9.60
2019-04-11T18:13:00.602Z,9.50
2019-04-11T18:16:05.862Z,9.40
2019-04-11T18:19:10.833Z,9.40
2019-04-11T18:22:15.841Z,9.20
2019-04-11T18:25:21.548Z,9.10
2019-04-11T18:28:26.617Z,9.00
2019-04-11T18:31:31.537Z,8.90
2019-04-11T18:34:36.519Z,8.90
2019-04-11T18:37:41.652Z,8.80
2019-04-11T18:40:46.653Z,8.70
2019-04-11T18:43:51.734Z,8.70
2019-04-11T18:46:56.741Z,8.60
2019-04-11T18:50:01.736Z,8.50
2019-04-11T18:53:06.741Z,8.40
2019-04-11T18:56:11.806Z,8.30
2019-04-11T18:59:16.792Z,8.30
2019-04-11T19:02:22.543Z,8.20
2019-04-11T19:05:28.921Z,8.10
2019-04-11T19:08:34.494Z,8.00
2019-04-11T19:11:39.624Z,7.90
2019-04-11T19:14:45.917Z,7.90
2019-04-11T19:18:05.303Z,7.80
2019-04-11T19:20:57.950Z,7.80
2019-04-11T19:24:02.883Z,7.70
2019-04-11T19:27:07.909Z,7.60
2019-04-11T19:30:12.957Z,7.50
2019-04-11T19:33:19.216Z,7.40
2019-04-11T19:36:24.337Z,7.30
2019-04-11T19:39:29.606Z,7.30
2019-04-11T19:42:34.509Z,7.20
2019-04-11T19:45:39.427Z,7.30
2019-04-11T19:48:44.417Z,7.20
2019-04-11T19:51:50.840Z,7.10
2019-04-11T19:54:57.761Z,7.10
2019-04-11T19:58:02.713Z,7.00
2019-04-11T20:01:07.789Z,6.90
2019-04-11T20:04:12.701Z,6.80
2019-04-11T20:07:18.885Z,6.80
2019-04-11T20:10:23.852Z,6.80
2019-04-11T20:13:31.923Z,6.70
2019-04-11T20:16:41.814Z,6.60
2019-04-11T20:19:42.125Z,6.50
2019-04-11T20:22:59.587Z,6.50
2019-04-11T20:26:04.633Z,6.50
2019-04-11T20:29:09.685Z,6.40
2019-04-11T20:32:14.748Z,6.30
2019-04-11T20:35:28.421Z,6.30
2019-04-11T20:38:26.496Z,6.20
2019-04-11T20:41:31.694Z,6.10
2019-04-11T20:44:36.600Z,6.00
2019-04-11T20:47:41.523Z,6.00
2019-04-11T20:50:46.506Z,5.90
2019-04-11T20:53:51.712Z,5.90
2019-04-11T20:56:56.665Z,5.90
2019-04-11T21:00:02.668Z,5.80
2019-04-11T21:03:07.592Z,5.80
2019-04-11T21:06:12.497Z,5.70
2019-04-11T21:09:17.503Z,5.60
2019-04-11T21:12:22.563Z,5.60
2019-04-11T21:15:27.562Z,5.50
2019-04-11T21:18:32.483Z,5.50
2019-04-11T21:21:37.398Z,5.40
2019-04-11T21:24:42.389Z,5.40
2019-04-11T21:27:47.320Z,5.40
2019-04-11T21:30:52.421Z,5.40
2019-04-11T21:33:57.421Z,5.40
2019-04-11T21:37:02.849Z,5.40
2019-04-11T21:40:08.768Z,5.40
2019-04-11T21:43:13.800Z,5.40
2019-04-11T21:46:19.002Z,5.30
2019-04-11T21:49:24.687Z,5.30
2019-04-11T21:52:32.182Z,5.30
2019-04-11T21:55:36.289Z,5.20
2019-04-11T21:58:41.275Z,5.20
2019-04-11T22:01:46.325Z,5.10
2019-04-11T22:04:51.416Z,5.10
2019-04-11T22:07:56.396Z,5.00
2019-04-11T22:11:03.111Z,5.00
2019-04-11T22:14:10.937Z,5.00
2019-04-11T22:17:16.318Z,4.90
2019-04-11T22:20:21.635Z,4.90
2019-04-11T22:23:26.629Z,4.90
2019-04-11T22:26:31.544Z,4.90
2019-04-11T22:29:36.507Z,4.90
2019-04-11T22:32:43.278Z,4.80
2019-04-11T22:35:48.275Z,4.80
2019-04-11T22:38:53.316Z,4.80
2019-04-11T22:41:58.219Z,4.80
2019-04-11T22:45:03.324Z,4.80
2019-04-11T22:48:08.801Z,4.80
2019-04-11T22:51:14.439Z,4.70
2019-04-11T22:54:19.370Z,4.70
2019-04-11T22:57:24.276Z,4.70
2019-04-11T23:00:29.208Z,4.60
2019-04-11T23:03:39.452Z,4.60
2019-04-11T23:06:44.998Z,4.50
2019-04-11T23:09:51.163Z,4.50
2019-04-11T23:12:57.084Z,4.50
2019-04-11T23:16:02.012Z,4.50
2019-04-11T23:19:07.013Z,4.50
2019-04-11T23:22:12.745Z,4.40
2019-04-11T23:25:17.900Z,4.30
2019-04-11T23:28:22.874Z,4.30
2019-04-11T23:31:27.872Z,4.30
2019-04-11T23:34:35.238Z,4.30
2019-04-11T23:37:52.254Z,4.30
2019-04-11T23:40:57.377Z,4.30
2019-04-11T23:44:02.286Z,4.30
2019-04-11T23:47:07.201Z,4.20
2019-04-11T23:50:12.283Z,4.20
2019-04-11T23:53:17.180Z,4.10
2019-04-11T23:56:22.107Z,4.00
2019-04-11T23:59:31.774Z,4.00
